Airfield :







YOU CAN JOIN US ON...

 
LOGIN :

Register | Disclaimer

   EN    FR    IT 

 









Legend :    VFR   Marginal VFR   IFR   Intensive IFR   Very Intensive IFR
Visi :
Ceiling :
>= 8 km
>= 3000ft
5 to 8 km
1000 to 3000 ft
1500m to 5 km
500 to 1000 ft
800 to 1500m
200 to 500 ft
< 800m
< 200 ft
Symbols :   Thunderstorms  Fog  Heavy snow  Heavy precipitations  Wind > 20 kt






- Airport Elevation : 100 ft
- IATA code : PSM


KPSM - Portsmouth International at Pease

CURRENT METAR :
  • 221556Z 08010KT 10SM BKN010 OVC200 13/10 A3013 RMK AO2A SLP206 T01340096

EXPIRED METARs :
  • 221536Z 08011G16KT 10SM BKN010 BKN200 14/10 A3013 RMK AO2A SLP206
  • 221456Z 09010G16KT 10SM FEW020 BKN200 13/10 A3013 RMK AO2A SLP206 T01270095
  • 221356Z 04007KT 10SM OVC200 10/08 A3016 RMK AO2A SLP216 T01010080

TAF KPSM
Valid from the 22 at 16:00 until the 23 at 12:00 UTC


221540Z 2216/2312 08012KT P6SM BKN010 BKN150
FM222100 08009KT P6SM OVC020
FM230000 08011KT P6SM RA OVC008
FM230200 08010KT 2SM +RA BR OVC003
FM231100 14005KT 5SM SHRA OVC003



MET'MAP, your aeronautical weather chart ! - Copyright ORBIFLY December 2007 - Disclaimer

ORBIFLY MET'MAP TEAM :

Programming & Development : Alexandra Zaïnal
Concept & Development : Baudouin d'Aumeries
Co-Development & Prog : Marc-Olivier Méhu
Technical & hardware support : Manuel Goepfert

Contact : metmap@orbifly.com




SOURCES & CREDITS :

   NOAA